createdAt,value
2023-10-29T00:00:04.457Z,16.91
2023-10-29T00:02:06.784Z,16.88
2023-10-29T00:04:09.631Z,16.81
2023-10-29T00:06:13.090Z,16.84
2023-10-29T00:08:16.094Z,16.89
2023-10-29T00:10:19.435Z,16.94
2023-10-29T00:12:21.225Z,16.91
2023-10-29T00:14:23.766Z,16.87
2023-10-29T00:16:25.521Z,16.86
2023-10-29T00:18:27.308Z,16.76
2023-10-29T00:20:29.105Z,16.64
2023-10-29T00:22:31.067Z,16.55
2023-10-29T00:24:32.769Z,16.33
2023-10-29T00:26:34.471Z,15.88
2023-10-29T00:28:36.442Z,15.82
2023-10-29T00:30:39.081Z,15.94
2023-10-29T00:32:40.774Z,16.10
2023-10-29T00:34:42.635Z,16.25
2023-10-29T00:36:45.047Z,16.38
2023-10-29T00:38:46.749Z,16.46
2023-10-29T00:40:48.573Z,16.51
2023-10-29T00:42:50.206Z,16.56
2023-10-29T00:44:52.973Z,16.59
2023-10-29T00:46:56.011Z,16.63
2023-10-29T00:48:57.955Z,16.67
2023-10-29T00:51:00.100Z,16.68
2023-10-29T00:53:01.997Z,16.66
2023-10-29T00:55:05.040Z,16.66
2023-10-29T00:57:08.258Z,16.64
2023-10-29T00:59:13.168Z,16.58
2023-10-29T01:01:14.849Z,16.40
2023-10-29T01:03:17.736Z,16.32
2023-10-29T01:05:19.721Z,16.28
2023-10-29T01:07:21.540Z,16.25
2023-10-29T01:09:23.321Z,16.25
2023-10-29T01:11:25.099Z,16.27
2023-10-29T01:13:26.833Z,16.29
2023-10-29T01:15:28.584Z,16.29
2023-10-29T01:17:31.272Z,16.31
2023-10-29T01:19:35.792Z,16.32
2023-10-29T01:21:37.540Z,16.32
2023-10-29T01:23:39.523Z,16.32
2023-10-29T01:25:42.734Z,16.31
2023-10-29T01:27:46.047Z,16.29
2023-10-29T01:29:48.027Z,16.27
2023-10-29T01:31:50.118Z,16.08
2023-10-29T01:33:53.077Z,15.86
2023-10-29T01:35:54.760Z,15.77
2023-10-29T01:37:56.548Z,15.73
2023-10-29T01:39:59.288Z,15.73
2023-10-29T01:42:01.114Z,15.71
2023-10-29T01:44:03.911Z,15.74
2023-10-29T01:46:05.855Z,15.76
2023-10-29T01:48:07.803Z,15.79
2023-10-29T01:50:11.101Z,15.59
2023-10-29T01:52:13.803Z,15.56
2023-10-29T01:54:15.658Z,15.54
2023-10-29T01:56:17.887Z,15.56
2023-10-29T01:58:19.662Z,15.58
2023-10-29T02:00:21.800Z,15.44
2023-10-29T02:02:24.563Z,15.29
2023-10-29T02:04:28.395Z,15.30
2023-10-29T02:06:31.511Z,15.38
2023-10-29T02:08:33.539Z,15.43
2023-10-29T02:10:35.183Z,15.48
2023-10-29T02:12:37.792Z,15.49
2023-10-29T02:14:41.353Z,15.55
2023-10-29T02:16:44.467Z,15.60
2023-10-29T02:18:46.325Z,15.63
2023-10-29T02:20:48.046Z,15.54
2023-10-29T02:22:49.666Z,15.40
2023-10-29T02:24:51.969Z,15.06
2023-10-29T02:26:53.844Z,14.77
2023-10-29T02:28:55.518Z,14.82
2023-10-29T02:30:57.218Z,14.92
2023-10-29T02:32:59.611Z,15.05
2023-10-29T02:35:01.386Z,15.10
2023-10-29T02:37:03.564Z,15.20
2023-10-29T02:39:05.201Z,15.27
2023-10-29T02:41:08.528Z,15.30
2023-10-29T02:43:11.722Z,15.29
2023-10-29T02:45:13.604Z,15.33
2023-10-29T02:47:15.212Z,15.33
2023-10-29T02:49:17.524Z,15.32
2023-10-29T02:51:19.419Z,15.20
2023-10-29T02:53:22.346Z,15.02
2023-10-29T02:55:24.156Z,15.01
2023-10-29T02:57:25.832Z,15.02
2023-10-29T02:59:27.480Z,15.02
2023-10-29T03:01:29.505Z,14.72
2023-10-29T03:03:35.468Z,14.61
2023-10-29T03:05:50.164Z,14.57
2023-10-29T03:07:56.170Z,14.42
2023-10-29T03:09:59.333Z,14.42
2023-10-29T03:12:02.282Z,14.41
2023-10-29T03:14:04.715Z,14.43
2023-10-29T03:16:07.113Z,14.41
2023-10-29T03:18:09.086Z,14.41
2023-10-29T03:20:12.814Z,14.33
2023-10-29T03:22:14.946Z,14.33
2023-10-29T03:24:17.112Z,14.38
2023-10-29T03:26:18.862Z,14.40
2023-10-29T03:28:21.098Z,14.43
2023-10-29T03:30:22.842Z,14.46
2023-10-29T03:32:24.853Z,14.50
2023-10-29T03:34:26.781Z,14.51
2023-10-29T03:36:28.480Z,14.56
2023-10-29T03:38:30.271Z,14.62
2023-10-29T03:40:32.032Z,14.65
2023-10-29T03:42:34.656Z,14.64
2023-10-29T03:44:36.832Z,14.62
2023-10-29T03:46:39.752Z,14.65
2023-10-29T03:48:46.133Z,14.68
2023-10-29T03:50:47.997Z,14.66
2023-10-29T03:52:49.820Z,14.59
2023-10-29T03:54:51.728Z,14.53
2023-10-29T03:56:53.774Z,14.51
2023-10-29T03:58:55.624Z,14.50
2023-10-29T04:00:58.630Z,14.50
2023-10-29T04:03:00.480Z,14.50
2023-10-29T04:05:09.701Z,14.50
2023-10-29T04:07:13.160Z,14.51
2023-10-29T04:09:14.881Z,14.49
2023-10-29T04:11:17.383Z,14.50
2023-10-29T04:13:19.063Z,14.36
2023-10-29T04:15:20.703Z,14.36
2023-10-29T04:17:22.868Z,14.22
2023-10-29T04:19:25.156Z,14.08
2023-10-29T04:21:26.994Z,13.99
2023-10-29T04:23:28.776Z,13.98
2023-10-29T04:25:30.510Z,14.04
2023-10-29T04:27:32.308Z,14.11
2023-10-29T04:29:34.710Z,14.15
2023-10-29T04:31:36.951Z,14.14
2023-10-29T04:35:41.027Z,14.16
2023-10-29T04:37:42.724Z,14.22
2023-10-29T04:39:44.759Z,14.24
2023-10-29T04:41:50.416Z,14.26
2023-10-29T04:43:53.711Z,14.27
2023-10-29T04:45:58.071Z,14.21
2023-10-29T04:48:00.872Z,13.48
2023-10-29T04:50:02.981Z,12.65
2023-10-29T04:52:05.165Z,12.16
2023-10-29T04:54:08.816Z,12.09
2023-10-29T04:56:10.497Z,12.07
2023-10-29T04:58:12.786Z,12.04
2023-10-29T05:00:14.635Z,12.02
2023-10-29T05:02:19.962Z,12.11
2023-10-29T05:04:21.739Z,12.37
2023-10-29T05:06:24.095Z,12.61
2023-10-29T05:08:25.804Z,12.86
2023-10-29T05:10:29.916Z,13.09
2023-10-29T05:12:31.723Z,13.37
2023-10-29T05:14:33.397Z,13.62
2023-10-29T05:16:35.153Z,13.75
2023-10-29T05:18:37.133Z,13.81
2023-10-29T05:20:41.673Z,13.83
2023-10-29T05:22:43.574Z,13.80
2023-10-29T05:24:45.256Z,13.69
2023-10-29T05:26:47.482Z,13.74
2023-10-29T05:28:49.252Z,13.83
2023-10-29T05:30:51.015Z,13.85
2023-10-29T05:32:52.917Z,13.82
2023-10-29T05:34:56.195Z,13.86
2023-10-29T05:36:58.323Z,13.81
2023-10-29T05:39:00.356Z,13.78
2023-10-29T05:41:02.025Z,13.75
2023-10-29T05:43:03.777Z,13.72
2023-10-29T05:45:08.244Z,13.75
2023-10-29T05:47:10.421Z,13.89
2023-10-29T05:49:12.075Z,14.06
2023-10-29T05:51:18.889Z,14.23
2023-10-29T05:53:21.704Z,14.32
2023-10-29T05:55:23.871Z,14.41
2023-10-29T05:57:25.692Z,14.34
2023-10-29T05:59:29.404Z,14.21
2023-10-29T06:01:32.518Z,14.16
2023-10-29T06:03:36.205Z,14.27
2023-10-29T06:05:38.168Z,14.33
2023-10-29T06:07:44.960Z,13.96
2023-10-29T06:09:49.415Z,13.34
2023-10-29T06:11:51.236Z,12.97
2023-10-29T06:13:55.018Z,12.84
2023-10-29T06:15:57.023Z,12.94
2023-10-29T06:17:58.808Z,13.06
2023-10-29T06:20:04.472Z,13.23
2023-10-29T06:22:09.673Z,13.53
2023-10-29T06:24:11.530Z,13.88
2023-10-29T06:26:14.269Z,14.21
2023-10-29T06:28:16.021Z,14.48
2023-10-29T06:30:18.404Z,14.69
2023-10-29T06:32:20.965Z,14.89
2023-10-29T06:34:25.545Z,15.04
2023-10-29T06:36:27.248Z,15.18
2023-10-29T06:38:29.440Z,15.34
2023-10-29T06:40:31.185Z,15.45
2023-10-29T06:42:32.868Z,15.55
2023-10-29T06:44:34.612Z,15.62
2023-10-29T06:46:36.624Z,15.71
2023-10-29T06:48:42.904Z,15.83
2023-10-29T06:50:44.835Z,15.98
2023-10-29T06:52:46.605Z,16.10
2023-10-29T06:54:48.873Z,16.21
2023-10-29T06:56:50.736Z,16.28
2023-10-29T06:58:52.623Z,16.39
2023-10-29T07:00:55.810Z,16.48
2023-10-29T07:02:58.142Z,16.59
2023-10-29T07:05:03.291Z,16.73
2023-10-29T07:07:06.303Z,16.68
2023-10-29T07:09:08.548Z,16.55
2023-10-29T07:11:10.697Z,16.47
2023-10-29T07:13:12.826Z,16.52
2023-10-29T07:15:15.165Z,16.63
2023-10-29T07:17:18.073Z,16.71
2023-10-29T07:19:21.457Z,16.60
2023-10-29T07:21:23.422Z,16.56
2023-10-29T07:23:27.376Z,16.69
2023-10-29T07:25:29.270Z,16.90
2023-10-29T07:27:31.931Z,17.00
2023-10-29T07:29:33.685Z,16.96
2023-10-29T07:31:35.434Z,16.95
2023-10-29T07:33:37.310Z,17.14
2023-10-29T07:35:40.274Z,17.27
2023-10-29T07:37:42.388Z,17.45
2023-10-29T07:39:44.397Z,17.63
2023-10-29T07:41:46.036Z,17.80
2023-10-29T07:43:48.627Z,17.83
2023-10-29T07:45:53.359Z,17.90
2023-10-29T07:47:55.893Z,17.94
2023-10-29T07:49:57.682Z,17.81
2023-10-29T07:51:59.342Z,17.85
2023-10-29T07:54:01.465Z,17.91
2023-10-29T07:56:15.228Z,17.95
2023-10-29T07:58:17.169Z,18.12
2023-10-29T08:00:18.932Z,18.23
2023-10-29T08:02:20.536Z,18.33
2023-10-29T08:04:22.667Z,18.44
2023-10-29T08:06:24.712Z,18.54
2023-10-29T08:08:26.427Z,18.66
2023-10-29T08:10:28.149Z,18.81
2023-10-29T08:12:30.840Z,18.97
2023-10-29T08:14:32.765Z,19.05
2023-10-29T08:16:34.432Z,18.70
2023-10-29T08:18:36.324Z,18.26
2023-10-29T08:20:38.538Z,18.09
2023-10-29T08:22:40.260Z,17.93
2023-10-29T08:24:41.963Z,17.38
2023-10-29T08:26:44.016Z,16.90
2023-10-29T08:28:46.197Z,17.02
2023-10-29T08:30:51.077Z,17.11
2023-10-29T08:32:53.214Z,17.28
2023-10-29T08:34:54.986Z,17.67
2023-10-29T08:36:57.051Z,18.00
2023-10-29T08:38:58.740Z,18.33
2023-10-29T08:41:00.514Z,18.34
2023-10-29T08:43:05.839Z,18.15
2023-10-29T08:45:10.040Z,17.66
2023-10-29T08:47:11.825Z,17.76
2023-10-29T08:49:13.712Z,17.84
2023-10-29T08:51:17.064Z,18.08
2023-10-29T08:53:19.078Z,18.28
2023-10-29T08:55:20.870Z,18.64
2023-10-29T08:57:22.843Z,18.95
2023-10-29T08:59:27.312Z,19.16
2023-10-29T09:01:29.797Z,19.42
2023-10-29T09:03:31.753Z,19.65
2023-10-29T09:05:33.599Z,19.76
2023-10-29T09:07:37.184Z,19.84
2023-10-29T09:09:39.118Z,19.99
2023-10-29T09:11:44.481Z,19.99
2023-10-29T09:13:46.465Z,20.02
2023-10-29T09:15:50.213Z,20.10
2023-10-29T09:17:52.113Z,20.15
2023-10-29T09:19:54.351Z,20.30
2023-10-29T09:21:56.257Z,20.49
2023-10-29T09:23:58.081Z,20.65
2023-10-29T09:26:00.730Z,20.84
2023-10-29T09:28:08.841Z,20.98
2023-10-29T09:30:11.215Z,21.04
2023-10-29T09:32:15.202Z,21.05
2023-10-29T09:34:16.905Z,21.10
2023-10-29T09:36:19.524Z,21.14
2023-10-29T09:38:21.749Z,21.17
2023-10-29T09:40:23.457Z,21.27
2023-10-29T09:42:31.309Z,21.06
2023-10-29T09:44:35.011Z,20.33
2023-10-29T09:46:38.392Z,19.93
2023-10-29T09:48:41.602Z,19.89
2023-10-29T09:50:45.061Z,20.07
2023-10-29T09:52:51.291Z,20.27
2023-10-29T09:54:53.662Z,20.48
2023-10-29T09:56:55.585Z,20.78
2023-10-29T09:58:57.474Z,20.73
2023-10-29T10:00:59.578Z,20.40
2023-10-29T10:03:01.632Z,20.28
2023-10-29T10:05:06.499Z,20.29
2023-10-29T10:07:08.678Z,19.92
2023-10-29T10:09:11.757Z,19.88
2023-10-29T10:11:24.040Z,19.89
2023-10-29T10:13:45.122Z,20.09
2023-10-29T10:15:52.761Z,20.43
2023-10-29T10:18:01.377Z,20.58
2023-10-29T10:20:08.507Z,20.82
2023-10-29T10:22:10.578Z,20.93
2023-10-29T10:24:13.286Z,21.12
2023-10-29T10:26:19.822Z,21.28
2023-10-29T10:28:22.082Z,21.60
2023-10-29T10:30:35.326Z,21.73
2023-10-29T10:32:39.041Z,21.77
2023-10-29T10:34:51.763Z,21.91
2023-10-29T10:37:00.521Z,22.12
2023-10-29T10:39:02.251Z,22.24
2023-10-29T10:41:04.125Z,22.37
2023-10-29T10:43:07.844Z,22.31
2023-10-29T10:45:09.761Z,22.22
2023-10-29T10:47:11.922Z,22.18
2023-10-29T10:49:14.873Z,22.26
2023-10-29T10:51:17.416Z,22.42
2023-10-29T10:53:20.635Z,22.59
2023-10-29T10:55:47.016Z,22.61
2023-10-29T10:57:48.655Z,22.16
2023-10-29T10:59:51.288Z,21.99
2023-10-29T11:01:53.707Z,21.61
2023-10-29T11:03:56.241Z,21.19
2023-10-29T11:05:58.360Z,20.98
2023-10-29T11:08:00.262Z,20.92
2023-10-29T11:10:04.244Z,20.92
2023-10-29T11:12:06.852Z,21.30
2023-10-29T11:14:17.431Z,21.56
2023-10-29T11:16:24.092Z,21.55
2023-10-29T11:18:32.107Z,21.47
2023-10-29T11:20:50.938Z,21.55
2023-10-29T11:22:53.416Z,21.55
2023-10-29T11:25:10.049Z,21.89
2023-10-29T11:27:44.768Z,22.18
2023-10-29T11:29:46.574Z,21.61
2023-10-29T11:31:48.248Z,21.68
2023-10-29T11:34:00.762Z,21.64
2023-10-29T11:36:36.319Z,21.28
2023-10-29T11:38:40.693Z,21.41
2023-10-29T11:40:43.493Z,21.35
2023-10-29T11:42:47.903Z,21.57
2023-10-29T11:44:49.835Z,21.81
2023-10-29T11:47:09.772Z,22.12
2023-10-29T11:49:11.526Z,22.36
2023-10-29T11:51:13.441Z,22.57
2023-10-29T11:53:25.931Z,22.74
2023-10-29T11:55:44.331Z,22.87
2023-10-29T11:57:47.300Z,22.87
2023-10-29T11:59:56.244Z,22.74
2023-10-29T12:01:58.183Z,22.55
2023-10-29T12:04:00.181Z,22.27
2023-10-29T12:06:02.183Z,21.83
2023-10-29T12:08:05.314Z,21.84
2023-10-29T12:10:07.474Z,21.83
2023-10-29T12:12:12.653Z,21.84
2023-10-29T12:14:14.546Z,21.85
2023-10-29T12:16:16.219Z,21.86
2023-10-29T12:18:26.427Z,21.93
2023-10-29T12:20:30.259Z,21.96
2023-10-29T12:22:33.650Z,21.89
2023-10-29T12:24:35.700Z,21.99
2023-10-29T12:26:37.428Z,22.12
2023-10-29T12:28:39.548Z,22.19
2023-10-29T12:30:51.071Z,22.03
2023-10-29T12:32:52.950Z,21.63
2023-10-29T12:34:59.898Z,21.65
2023-10-29T12:37:02.369Z,21.86
2023-10-29T12:39:06.201Z,22.05
2023-10-29T12:41:15.401Z,21.87
2023-10-29T12:43:17.392Z,21.91
2023-10-29T12:45:29.845Z,21.97
2023-10-29T12:47:31.507Z,21.94
2023-10-29T12:49:34.843Z,21.93
2023-10-29T12:51:37.917Z,21.78
2023-10-29T12:53:39.935Z,21.87
2023-10-29T12:55:47.926Z,21.62
2023-10-29T12:57:54.637Z,21.41
2023-10-29T12:59:57.642Z,21.16
2023-10-29T13:02:07.235Z,21.28
2023-10-29T13:04:09.161Z,21.33
2023-10-29T13:06:10.861Z,21.45
2023-10-29T13:08:15.318Z,21.61
2023-10-29T13:10:17.955Z,21.77
2023-10-29T13:12:19.779Z,21.88
2023-10-29T13:14:25.869Z,22.02
2023-10-29T13:16:27.862Z,21.80
2023-10-29T13:18:30.595Z,21.92
2023-10-29T13:20:34.744Z,21.99
2023-10-29T13:22:38.557Z,21.93
2023-10-29T13:24:40.439Z,21.77
2023-10-29T13:26:42.354Z,21.76
2023-10-29T13:28:45.634Z,21.55
2023-10-29T13:30:59.137Z,21.47
2023-10-29T13:33:01.065Z,21.57
2023-10-29T13:35:04.002Z,21.58
2023-10-29T13:37:05.715Z,21.71
2023-10-29T13:39:19.668Z,21.84
2023-10-29T13:41:24.478Z,21.75
2023-10-29T13:43:26.275Z,21.71
2023-10-29T13:45:28.406Z,21.75
2023-10-29T13:47:30.199Z,21.83
2023-10-29T13:49:31.895Z,21.81
2023-10-29T13:51:34.059Z,21.71
2023-10-29T13:53:35.884Z,21.70
2023-10-29T13:55:37.684Z,21.63
2023-10-29T13:57:40.100Z,21.70
2023-10-29T13:59:42.246Z,21.77
2023-10-29T14:01:44.133Z,21.87
2023-10-29T14:03:46.598Z,21.97
2023-10-29T14:05:49.102Z,22.09
2023-10-29T14:07:52.745Z,22.19
2023-10-29T14:09:54.369Z,22.28
2023-10-29T14:11:56.012Z,22.37
2023-10-29T14:13:59.408Z,22.43
2023-10-29T14:16:02.771Z,22.51
2023-10-29T14:18:05.313Z,22.57
2023-10-29T14:20:08.125Z,22.61
2023-10-29T14:22:10.081Z,22.36
2023-10-29T14:24:12.912Z,22.37
2023-10-29T14:26:14.574Z,22.42
2023-10-29T14:28:17.428Z,22.49
2023-10-29T14:30:19.307Z,22.58
2023-10-29T14:32:22.790Z,22.64
2023-10-29T14:34:24.529Z,22.70
2023-10-29T14:36:26.584Z,22.74
2023-10-29T14:38:28.744Z,22.78
2023-10-29T14:40:31.022Z,22.79
2023-10-29T14:42:32.840Z,22.80
2023-10-29T14:44:34.557Z,22.82
2023-10-29T14:46:37.935Z,22.80
2023-10-29T14:48:41.185Z,22.76
2023-10-29T14:50:43.521Z,22.76
2023-10-29T14:52:45.251Z,22.72
2023-10-29T14:54:47.096Z,22.67
2023-10-29T14:56:51.478Z,22.59
2023-10-29T14:58:53.981Z,22.51
2023-10-29T15:00:59.243Z,22.41
2023-10-29T15:03:01.282Z,22.28
2023-10-29T15:05:05.371Z,22.13
2023-10-29T15:07:07.121Z,21.96
2023-10-29T15:09:09.094Z,21.76
2023-10-29T15:11:12.244Z,21.62
2023-10-29T15:13:14.458Z,21.48
2023-10-29T15:15:28.825Z,21.38
2023-10-29T15:17:32.047Z,21.24
2023-10-29T15:19:36.936Z,21.14
2023-10-29T15:21:39.302Z,21.04
2023-10-29T15:23:41.417Z,20.94
2023-10-29T15:25:45.564Z,20.86
2023-10-29T15:27:47.208Z,20.77
2023-10-29T15:29:53.810Z,20.69
2023-10-29T15:31:55.604Z,20.62
2023-10-29T15:33:57.748Z,20.53
2023-10-29T15:36:10.118Z,20.45
2023-10-29T15:38:14.657Z,20.38
2023-10-29T15:40:16.420Z,20.31
2023-10-29T15:42:18.353Z,20.23
2023-10-29T15:44:21.165Z,20.16
2023-10-29T15:46:22.918Z,20.10
2023-10-29T15:48:24.732Z,20.03
2023-10-29T15:50:26.500Z,19.99
2023-10-29T15:52:28.189Z,19.90
2023-10-29T15:54:30.844Z,19.83
2023-10-29T15:56:37.715Z,19.80
2023-10-29T15:58:39.655Z,19.75
2023-10-29T16:00:41.395Z,19.71
2023-10-29T16:02:43.793Z,19.64
2023-10-29T16:04:47.218Z,19.56
2023-10-29T16:06:50.646Z,19.54
2023-10-29T16:08:52.487Z,19.49
2023-10-29T16:10:57.116Z,19.45
2023-10-29T16:12:58.918Z,19.40
2023-10-29T16:15:03.073Z,19.35
2023-10-29T16:17:05.371Z,19.31
2023-10-29T16:19:07.370Z,19.21
2023-10-29T16:21:11.004Z,19.17
2023-10-29T16:23:13.679Z,19.13
2023-10-29T16:25:17.368Z,19.10
2023-10-29T16:27:18.950Z,19.09
2023-10-29T16:29:20.637Z,19.03
2023-10-29T16:31:23.483Z,18.97
2023-10-29T16:33:25.249Z,18.95
2023-10-29T16:35:27.027Z,18.90
2023-10-29T16:37:28.661Z,18.88
2023-10-29T16:39:30.427Z,18.90
2023-10-29T16:41:32.320Z,18.92
2023-10-29T16:43:36.999Z,18.89
2023-10-29T16:45:40.854Z,18.86
2023-10-29T16:47:42.716Z,18.85
2023-10-29T16:49:52.703Z,18.83
2023-10-29T16:51:57.171Z,18.77
2023-10-29T16:53:58.987Z,18.73
2023-10-29T16:56:07.022Z,18.66
2023-10-29T16:58:08.673Z,18.61
2023-10-29T17:00:11.594Z,18.63
2023-10-29T17:02:13.701Z,18.61
2023-10-29T17:04:17.780Z,18.63
2023-10-29T17:06:19.721Z,18.61
2023-10-29T17:08:22.334Z,18.60
2023-10-29T17:10:25.189Z,18.61
2023-10-29T17:12:27.502Z,18.59
2023-10-29T17:14:29.754Z,18.60
2023-10-29T17:16:33.282Z,18.58
2023-10-29T17:18:35.660Z,18.56
2023-10-29T17:20:38.715Z,18.53
2023-10-29T17:22:40.529Z,18.54
2023-10-29T17:24:43.210Z,18.13
2023-10-29T17:26:45.128Z,17.88
2023-10-29T17:28:51.070Z,17.58
2023-10-29T17:30:53.073Z,17.50
2023-10-29T17:32:58.918Z,17.54
2023-10-29T17:35:01.522Z,17.55
2023-10-29T17:37:05.223Z,17.32
2023-10-29T17:41:17.822Z,17.24
2023-10-29T17:43:23.260Z,17.29
2023-10-29T17:45:25.020Z,17.28
2023-10-29T17:47:26.952Z,17.35
2023-10-29T17:49:28.616Z,17.44
2023-10-29T17:51:30.725Z,17.53
2023-10-29T17:53:34.026Z,17.62
2023-10-29T17:55:36.306Z,17.69
2023-10-29T17:57:38.316Z,17.72
2023-10-29T17:59:41.340Z,17.76
2023-10-29T18:01:43.921Z,17.79
2023-10-29T18:03:48.183Z,17.81
2023-10-29T18:05:51.489Z,17.78
2023-10-29T18:07:54.668Z,17.77
2023-10-29T18:09:56.535Z,17.74
2023-10-29T18:11:58.164Z,17.66
2023-10-29T18:13:59.963Z,17.62
2023-10-29T18:16:02.396Z,17.60
2023-10-29T18:18:05.673Z,17.58
2023-10-29T18:20:07.990Z,17.57
2023-10-29T18:22:09.858Z,17.57
2023-10-29T18:24:11.785Z,17.58
2023-10-29T18:26:13.518Z,17.58
2023-10-29T18:28:15.263Z,17.60
2023-10-29T18:30:17.406Z,17.58
2023-10-29T18:32:19.210Z,17.58
2023-10-29T18:34:21.442Z,17.58
2023-10-29T18:36:27.946Z,17.54
2023-10-29T18:38:32.122Z,17.47
2023-10-29T18:40:35.906Z,17.44
2023-10-29T18:42:37.865Z,17.40
2023-10-29T18:44:39.856Z,17.40
2023-10-29T18:46:42.599Z,17.42
2023-10-29T18:48:47.966Z,17.37
2023-10-29T18:50:49.740Z,17.34
2023-10-29T18:52:51.629Z,17.26
2023-10-29T18:54:53.346Z,17.20
2023-10-29T18:56:55.227Z,17.20
2023-10-29T18:59:01.570Z,17.19
2023-10-29T19:01:12.432Z,17.10
2023-10-29T19:03:16.936Z,16.78
2023-10-29T19:05:22.108Z,16.70
2023-10-29T19:07:24.338Z,16.54
2023-10-29T19:09:26.285Z,16.56
2023-10-29T19:11:37.858Z,16.50
2023-10-29T19:13:39.918Z,16.57
2023-10-29T19:15:41.698Z,16.45
2023-10-29T19:17:44.825Z,16.49
2023-10-29T19:19:47.236Z,16.56
2023-10-29T19:21:49.109Z,16.62
2023-10-29T19:23:50.845Z,16.68
2023-10-29T19:25:52.518Z,16.65
2023-10-29T19:27:54.314Z,16.57
2023-10-29T19:29:56.319Z,16.52
2023-10-29T19:31:58.000Z,16.51
2023-10-29T19:34:01.322Z,16.52
2023-10-29T19:36:18.239Z,16.47
2023-10-29T19:38:20.098Z,16.42
2023-10-29T19:40:21.921Z,16.45
2023-10-29T19:42:23.835Z,16.48
2023-10-29T19:44:25.488Z,16.50
2023-10-29T19:46:27.843Z,16.51
2023-10-29T19:48:33.108Z,16.50
2023-10-29T19:50:35.384Z,16.14
2023-10-29T19:52:37.509Z,15.66
2023-10-29T19:54:39.694Z,15.54
2023-10-29T19:56:45.220Z,15.61
2023-10-29T19:58:47.061Z,15.73
2023-10-29T20:00:50.103Z,15.85
2023-10-29T20:02:52.146Z,15.85
2023-10-29T20:04:53.878Z,15.80
2023-10-29T20:06:56.275Z,15.47
2023-10-29T20:08:58.395Z,15.24
2023-10-29T20:11:00.194Z,14.93
2023-10-29T20:13:02.170Z,14.71
2023-10-29T20:15:04.576Z,14.69
2023-10-29T20:17:07.465Z,14.86
2023-10-29T20:19:09.283Z,15.02
2023-10-29T20:21:19.629Z,15.01
2023-10-29T20:23:22.141Z,15.04
2023-10-29T20:25:26.735Z,14.93
2023-10-29T20:27:28.867Z,14.82
2023-10-29T20:29:30.628Z,14.61
2023-10-29T20:31:32.346Z,14.51
2023-10-29T20:33:34.425Z,14.51
2023-10-29T20:35:37.071Z,14.52
2023-10-29T20:37:38.741Z,14.38
2023-10-29T20:39:40.666Z,14.47
2023-10-29T20:41:43.151Z,14.53
2023-10-29T20:43:45.137Z,14.59
2023-10-29T20:45:51.421Z,14.72
2023-10-29T20:47:53.149Z,14.87
2023-10-29T20:49:54.881Z,15.02
2023-10-29T20:51:57.058Z,15.05
2023-10-29T20:53:59.078Z,15.11
2023-10-29T20:56:08.010Z,15.17
2023-10-29T20:58:09.851Z,15.27
2023-10-29T21:00:13.531Z,15.33
2023-10-29T21:02:15.208Z,15.39
2023-10-29T21:04:17.958Z,15.42
2023-10-29T21:06:20.311Z,15.42
2023-10-29T21:08:23.064Z,15.43
2023-10-29T21:10:24.934Z,15.46
2023-10-29T21:12:26.711Z,15.49
2023-10-29T21:14:29.066Z,15.43
2023-10-29T21:16:31.157Z,15.37
2023-10-29T21:18:34.285Z,15.34
2023-10-29T21:20:37.558Z,15.36
2023-10-29T21:22:39.389Z,15.35
2023-10-29T21:24:41.825Z,15.36
2023-10-29T21:26:44.583Z,15.30
2023-10-29T21:28:46.323Z,15.10
2023-10-29T21:30:48.102Z,15.03
2023-10-29T21:32:49.959Z,15.01
2023-10-29T21:34:51.668Z,15.06
2023-10-29T21:36:53.422Z,15.13
2023-10-29T21:38:55.511Z,15.21
2023-10-29T21:41:03.472Z,15.24
2023-10-29T21:43:05.460Z,15.23
2023-10-29T21:45:09.274Z,15.17
2023-10-29T21:47:11.031Z,15.09
2023-10-29T21:49:14.326Z,15.05
2023-10-29T21:51:16.198Z,15.03
2023-10-29T21:53:18.261Z,15.00
2023-10-29T21:55:20.312Z,14.99
2023-10-29T21:57:23.126Z,14.99
2023-10-29T21:59:24.814Z,14.94
2023-10-29T22:01:27.546Z,14.95
2023-10-29T22:03:31.317Z,14.96
2023-10-29T22:05:34.402Z,14.95
2023-10-29T22:07:36.223Z,14.92
2023-10-29T22:09:38.017Z,14.87
2023-10-29T22:11:40.112Z,14.88
2023-10-29T22:13:42.427Z,14.87
2023-10-29T22:15:44.157Z,14.85
2023-10-29T22:17:47.251Z,14.82
2023-10-29T22:19:50.208Z,14.84
2023-10-29T22:21:53.398Z,14.88
2023-10-29T22:23:56.999Z,14.88
2023-10-29T22:25:58.730Z,14.84
2023-10-29T22:28:00.683Z,14.81
2023-10-29T22:30:02.423Z,14.69
2023-10-29T22:32:04.276Z,14.69
2023-10-29T22:34:06.005Z,14.69
2023-10-29T22:36:10.038Z,14.72
2023-10-29T22:38:14.525Z,14.76
2023-10-29T22:40:18.692Z,14.81
2023-10-29T22:42:21.389Z,14.83
2023-10-29T22:44:23.053Z,14.85
2023-10-29T22:46:24.681Z,14.87
2023-10-29T22:48:26.618Z,14.86
2023-10-29T22:50:28.340Z,14.83
2023-10-29T22:52:29.980Z,14.80
2023-10-29T22:54:32.697Z,14.78
2023-10-29T22:56:34.490Z,14.76
2023-10-29T22:58:36.651Z,14.75
2023-10-29T23:00:41.408Z,14.74
2023-10-29T23:02:43.471Z,14.76
2023-10-29T23:04:45.110Z,14.70
2023-10-29T23:06:47.766Z,14.63
2023-10-29T23:08:49.493Z,14.61
2023-10-29T23:10:51.143Z,14.61
2023-10-29T23:12:53.436Z,14.61
2023-10-29T23:14:55.119Z,14.61
2023-10-29T23:16:56.750Z,14.64
2023-10-29T23:18:58.506Z,14.63
2023-10-29T23:21:00.827Z,14.61
2023-10-29T23:23:04.522Z,14.58
2023-10-29T23:25:07.636Z,14.57
2023-10-29T23:27:10.054Z,14.59
2023-10-29T23:29:11.955Z,14.55
2023-10-29T23:31:14.317Z,14.57
2023-10-29T23:33:16.265Z,14.52
2023-10-29T23:35:18.168Z,14.45
2023-10-29T23:37:19.810Z,14.41
2023-10-29T23:39:21.596Z,14.36
2023-10-29T23:41:24.476Z,14.36
2023-10-29T23:43:28.205Z,14.25
2023-10-29T23:45:29.997Z,14.16
2023-10-29T23:47:31.773Z,14.14
2023-10-29T23:49:33.568Z,14.10
2023-10-29T23:51:35.225Z,14.16
2023-10-29T23:53:37.202Z,14.16
2023-10-29T23:55:40.046Z,14.18
2023-10-29T23:57:41.650Z,14.18
2023-10-29T23:59:43.515Z,14.20
